Terminal Aerodrome Forecast
Issued by NWS

Home | Current Version | Previous Version | Text Only | Print | Product List | Glossary On
Versions: 1 2 3 4 5 6 7 8 9 10 11 12 13 14
000
FTUS41 KCAR 030558
TAFHUL
TAF
KHUL 030558Z 0306/0406 VRB03KT 6SM BR BKN070
     FM031200 34007KT P6SM BKN008
     FM031300 34007KT P6SM SCT250
     FM031900 34011KT P6SM SKC
     FM032300 35005KT P6SM SKC=

USA.gov is the U.S. government's official web portal to all federal, state and local government web resources and services.